createdAt,value
2018-10-16T00:00:16.857Z,6.58
2018-10-16T00:01:17.170Z,6.58
2018-10-16T00:02:16.492Z,6.58
2018-10-16T00:03:16.855Z,6.52
2018-10-16T00:04:16.490Z,6.47
2018-10-16T00:05:16.832Z,6.44
2018-10-16T00:06:17.107Z,6.47
2018-10-16T00:07:16.388Z,6.43
2018-10-16T00:08:16.718Z,6.47
2018-10-16T00:09:17.035Z,6.45
2018-10-16T00:10:16.345Z,6.43
2018-10-16T00:11:16.386Z,6.41
2018-10-16T00:12:16.673Z,6.40
2018-10-16T00:13:17.008Z,6.36
2018-10-16T00:14:16.323Z,6.34
2018-10-16T00:15:16.646Z,6.36
2018-10-16T00:16:16.928Z,6.33
2018-10-16T00:17:17.236Z,6.31
2018-10-16T00:18:16.520Z,6.27
2018-10-16T00:19:16.844Z,6.30
2018-10-16T00:20:17.148Z,6.24
2018-10-16T00:21:17.509Z,6.24
2018-10-16T00:22:16.801Z,6.24
2018-10-16T00:23:17.114Z,6.24
2018-10-16T00:24:16.819Z,6.26
2018-10-16T00:25:17.138Z,6.21
2018-10-16T00:26:16.438Z,6.29
2018-10-16T00:27:16.654Z,6.33
2018-10-16T00:28:16.981Z,6.34
2018-10-16T00:29:16.288Z,6.38
2018-10-16T00:30:16.622Z,6.34
2018-10-16T00:31:16.642Z,6.30
2018-10-16T00:32:16.935Z,6.36
2018-10-16T00:33:16.245Z,6.36
2018-10-16T00:34:16.554Z,6.33
2018-10-16T00:35:16.866Z,6.27
2018-10-16T00:36:17.214Z,6.26
2018-10-16T00:37:16.534Z,6.23
2018-10-16T00:38:16.830Z,6.13
2018-10-16T00:39:17.134Z,6.10
2018-10-16T00:40:16.463Z,6.14
2018-10-16T00:41:16.487Z,6.10
2018-10-16T00:42:16.818Z,6.08
2018-10-16T00:43:17.126Z,6.03
2018-10-16T00:44:16.462Z,6.03
2018-10-16T00:45:16.746Z,6.00
2018-10-16T00:46:17.067Z,6.00
2018-10-16T00:47:16.367Z,5.99
2018-10-16T00:48:16.691Z,5.99
2018-10-16T00:49:17.003Z,5.98
2018-10-16T00:50:16.316Z,5.96
2018-10-16T00:51:16.359Z,5.93
2018-10-16T00:52:16.686Z,5.89
2018-10-16T00:53:16.964Z,5.86
2018-10-16T00:54:16.254Z,5.79
2018-10-16T00:55:16.534Z,5.77
2018-10-16T00:56:16.863Z,5.75
2018-10-16T00:57:17.185Z,5.75
2018-10-16T00:58:16.471Z,5.71
2018-10-16T00:59:16.776Z,5.70
2018-10-16T01:00:17.077Z,5.70
2018-10-16T01:01:17.171Z,5.68
2018-10-16T01:02:16.503Z,5.65
2018-10-16T01:03:16.883Z,5.67
2018-10-16T01:04:17.201Z,5.64
2018-10-16T01:05:16.515Z,5.65
2018-10-16T01:06:16.813Z,5.64
2018-10-16T01:07:17.127Z,5.62
2018-10-16T01:08:16.445Z,5.62
2018-10-16T01:09:16.779Z,5.64
2018-10-16T01:10:17.102Z,5.65
2018-10-16T01:11:17.114Z,5.64
2018-10-16T01:12:16.456Z,5.65
2018-10-16T01:13:16.798Z,5.61
2018-10-16T01:14:16.297Z,5.64
2018-10-16T01:15:16.573Z,5.65
2018-10-16T01:16:16.902Z,5.67
2018-10-16T01:17:17.215Z,5.67
2018-10-16T01:18:16.521Z,5.65
2018-10-16T01:19:16.787Z,5.61
2018-10-16T01:20:17.135Z,5.58
2018-10-16T01:21:17.180Z,5.54
2018-10-16T01:22:16.491Z,5.51
2018-10-16T01:23:16.795Z,5.51
2018-10-16T01:24:17.150Z,5.51
2018-10-16T01:25:16.495Z,5.45
2018-10-16T01:26:16.774Z,5.44
2018-10-16T01:27:17.115Z,5.44
2018-10-16T01:28:16.411Z,5.40
2018-10-16T01:29:16.701Z,5.38
2018-10-16T01:30:17.017Z,5.40
2018-10-16T01:31:17.053Z,5.33
2018-10-16T01:32:16.426Z,5.34
2018-10-16T01:33:16.748Z,5.31
2018-10-16T01:34:17.065Z,5.28
2018-10-16T01:35:16.358Z,5.30
2018-10-16T01:36:16.664Z,5.26
2018-10-16T01:37:16.959Z,5.24
2018-10-16T01:38:16.244Z,5.23
2018-10-16T01:39:16.552Z,5.17
2018-10-16T01:40:16.878Z,5.19
2018-10-16T01:41:16.884Z,5.17
2018-10-16T01:42:17.224Z,5.14
2018-10-16T01:43:16.498Z,5.13
2018-10-16T01:44:16.767Z,5.10
2018-10-16T01:45:17.077Z,5.09
2018-10-16T01:46:16.352Z,5.10
2018-10-16T01:47:16.691Z,5.12
2018-10-16T01:48:16.962Z,5.07
2018-10-16T01:49:16.323Z,5.10
2018-10-16T01:50:16.607Z,5.12
2018-10-16T01:51:16.678Z,5.13
2018-10-16T01:52:17.012Z,5.13
2018-10-16T01:53:16.329Z,5.12
2018-10-16T01:54:16.647Z,5.13
2018-10-16T01:55:16.951Z,5.09
2018-10-16T01:56:16.278Z,5.07
2018-10-16T01:57:16.573Z,5.05
2018-10-16T01:58:16.899Z,5.09
2018-10-16T01:59:17.212Z,5.07
2018-10-16T02:00:16.520Z,5.09
2018-10-16T02:01:16.564Z,5.10
2018-10-16T02:02:16.866Z,5.16
2018-10-16T02:03:17.412Z,5.17
2018-10-16T02:04:16.692Z,5.16
2018-10-16T02:05:17.011Z,5.17
2018-10-16T02:06:16.303Z,5.17
2018-10-16T02:07:16.634Z,5.19
2018-10-16T02:08:16.943Z,5.26
2018-10-16T02:09:16.242Z,5.24
2018-10-16T02:10:16.578Z,5.31
2018-10-16T02:11:17.134Z,5.23
2018-10-16T02:12:16.448Z,5.27
2018-10-16T02:13:16.753Z,5.34
2018-10-16T02:14:17.051Z,5.31
2018-10-16T02:15:16.373Z,5.35
2018-10-16T02:16:16.691Z,5.33
2018-10-16T02:17:17.014Z,5.31
2018-10-16T02:18:16.317Z,5.31
2018-10-16T02:19:16.601Z,5.34
2018-10-16T02:20:16.918Z,5.33
2018-10-16T02:21:16.933Z,5.28
2018-10-16T02:22:17.217Z,5.28
2018-10-16T02:23:16.563Z,5.28
2018-10-16T02:24:16.836Z,5.44
2018-10-16T02:25:17.175Z,5.48
2018-10-16T02:26:16.483Z,5.58
2018-10-16T02:27:16.757Z,5.64
2018-10-16T02:28:17.055Z,5.54
2018-10-16T02:29:16.570Z,5.48
2018-10-16T02:30:16.884Z,5.44
2018-10-16T02:31:16.906Z,5.44
2018-10-16T02:32:16.226Z,5.44
2018-10-16T02:33:16.563Z,5.40
2018-10-16T02:34:16.868Z,5.38
2018-10-16T02:35:17.213Z,5.33
2018-10-16T02:36:16.525Z,5.41
2018-10-16T02:37:16.849Z,5.48
2018-10-16T02:38:17.167Z,5.50
2018-10-16T02:39:16.502Z,5.44
2018-10-16T02:40:16.799Z,5.44
2018-10-16T02:41:16.842Z,5.40
2018-10-16T02:42:17.174Z,5.38
2018-10-16T02:43:16.473Z,5.35
2018-10-16T02:44:16.786Z,5.35
2018-10-16T02:45:17.107Z,5.34
2018-10-16T02:46:16.432Z,5.31
2018-10-16T02:47:16.765Z,5.33
2018-10-16T02:48:17.222Z,5.28
2018-10-16T02:49:16.540Z,5.20
2018-10-16T02:50:16.877Z,5.17
2018-10-16T02:51:16.903Z,5.06
2018-10-16T02:52:17.232Z,4.99
2018-10-16T02:53:16.517Z,4.93
2018-10-16T02:54:16.849Z,4.86
2018-10-16T02:55:17.149Z,4.79
2018-10-16T02:56:16.456Z,4.74
2018-10-16T02:57:16.781Z,4.75
2018-10-16T02:58:17.446Z,4.72
2018-10-16T02:59:16.751Z,4.71
2018-10-16T03:00:17.041Z,4.64
2018-10-16T03:01:17.074Z,4.60
2018-10-16T03:02:16.382Z,4.58
2018-10-16T03:03:16.682Z,4.54
2018-10-16T03:04:16.960Z,4.54
2018-10-16T03:05:16.290Z,4.53
2018-10-16T03:06:16.574Z,4.51
2018-10-16T03:07:16.843Z,4.47
2018-10-16T03:08:17.466Z,4.46
2018-10-16T03:09:16.782Z,4.47
2018-10-16T03:10:17.081Z,4.46
2018-10-16T03:11:17.115Z,4.47
2018-10-16T03:12:16.417Z,4.47
2018-10-16T03:13:16.717Z,4.50
2018-10-16T03:14:17.017Z,4.50
2018-10-16T03:15:16.309Z,4.50
2018-10-16T03:16:16.611Z,4.51
2018-10-16T03:17:16.919Z,4.53
2018-10-16T03:18:17.221Z,4.54
2018-10-16T03:19:16.539Z,4.68
2018-10-16T03:20:16.932Z,4.81
2018-10-16T03:21:16.885Z,4.88
2018-10-16T03:22:17.213Z,4.96
2018-10-16T03:23:16.519Z,5.00
2018-10-16T03:24:16.820Z,5.03
2018-10-16T03:25:17.192Z,5.09
2018-10-16T03:26:16.466Z,5.06
2018-10-16T03:27:16.760Z,5.00
2018-10-16T03:28:17.465Z,4.96
2018-10-16T03:29:16.739Z,4.95
2018-10-16T03:30:17.059Z,4.96
2018-10-16T03:31:17.146Z,4.93
2018-10-16T03:32:16.506Z,4.93
2018-10-16T03:33:16.799Z,4.89
2018-10-16T03:34:17.111Z,4.91
2018-10-16T03:35:16.411Z,4.91
2018-10-16T03:36:16.754Z,4.91
2018-10-16T03:37:17.088Z,4.93
2018-10-16T03:38:16.387Z,4.92
2018-10-16T03:39:17.022Z,4.89
2018-10-16T03:40:16.321Z,4.93
2018-10-16T03:41:16.362Z,4.96
2018-10-16T03:42:16.678Z,5.06
2018-10-16T03:43:16.988Z,5.07
2018-10-16T03:44:16.278Z,5.10
2018-10-16T03:45:16.598Z,5.07
2018-10-16T03:46:16.907Z,4.96
2018-10-16T03:47:17.239Z,4.93
2018-10-16T03:48:16.513Z,4.89
2018-10-16T03:49:16.834Z,4.95
2018-10-16T03:50:17.130Z,4.99
2018-10-16T03:51:17.175Z,4.96
2018-10-16T03:52:16.488Z,4.93
2018-10-16T03:53:16.784Z,4.99
2018-10-16T03:54:17.137Z,5.02
2018-10-16T03:55:16.431Z,5.02
2018-10-16T03:56:16.743Z,5.03
2018-10-16T03:57:17.102Z,5.05
2018-10-16T03:58:16.622Z,4.99
2018-10-16T03:59:16.953Z,4.96
2018-10-16T04:00:16.268Z,4.96
2018-10-16T04:01:16.348Z,4.96
2018-10-16T04:02:16.614Z,4.99
2018-10-16T04:03:16.931Z,4.99
2018-10-16T04:04:16.231Z,4.98
2018-10-16T04:05:16.532Z,4.95
2018-10-16T04:06:16.849Z,4.86
2018-10-16T04:07:17.137Z,4.81
2018-10-16T04:08:16.439Z,4.79
2018-10-16T04:09:16.742Z,4.76
2018-10-16T04:10:17.057Z,4.76
2018-10-16T04:11:17.105Z,4.74
2018-10-16T04:12:17.123Z,4.74
2018-10-16T04:13:16.427Z,4.78
2018-10-16T04:14:16.745Z,4.74
2018-10-16T04:15:17.103Z,4.76
2018-10-16T04:16:16.388Z,4.72
2018-10-16T04:17:16.676Z,4.69
2018-10-16T04:18:17.017Z,4.67
2018-10-16T04:19:16.349Z,4.67
2018-10-16T04:20:16.685Z,4.72
2018-10-16T04:21:16.697Z,4.67
2018-10-16T04:22:16.999Z,4.61
2018-10-16T04:23:16.321Z,4.57
2018-10-16T04:24:16.608Z,4.54
2018-10-16T04:25:16.949Z,4.47
2018-10-16T04:26:16.261Z,4.37
2018-10-16T04:27:16.603Z,4.37
2018-10-16T04:28:16.894Z,4.33
2018-10-16T04:29:17.272Z,4.27
2018-10-16T04:30:16.802Z,4.13
2018-10-16T04:31:16.874Z,4.09
2018-10-16T04:32:17.190Z,4.09
2018-10-16T04:33:16.473Z,4.09
2018-10-16T04:34:16.794Z,4.12
2018-10-16T04:35:17.123Z,4.06
2018-10-16T04:36:16.422Z,4.03
2018-10-16T04:37:16.762Z,4.02
2018-10-16T04:38:17.092Z,4.06
2018-10-16T04:39:16.439Z,4.06
2018-10-16T04:40:16.791Z,4.09
2018-10-16T04:41:16.829Z,4.06
2018-10-16T04:42:17.124Z,4.02
2018-10-16T04:43:16.431Z,4.05
2018-10-16T04:44:16.722Z,4.03
2018-10-16T04:45:17.036Z,4.02
2018-10-16T04:46:16.316Z,4.00
2018-10-16T04:47:16.626Z,4.02
2018-10-16T04:48:16.957Z,3.98
2018-10-16T04:49:16.255Z,3.89
2018-10-16T04:50:16.593Z,3.88
2018-10-16T04:51:16.623Z,3.82
2018-10-16T04:52:17.247Z,3.83
2018-10-16T04:53:16.558Z,3.88
2018-10-16T04:54:16.881Z,3.88
2018-10-16T04:55:17.328Z,3.93
2018-10-16T04:56:16.937Z,3.92
2018-10-16T04:57:16.249Z,3.95
2018-10-16T04:58:16.536Z,3.93
2018-10-16T04:59:16.853Z,3.93
2018-10-16T05:00:17.161Z,3.93
2018-10-16T05:01:16.249Z,3.93
2018-10-16T05:02:16.533Z,3.96
2018-10-16T05:03:16.851Z,4.00
2018-10-16T05:04:17.214Z,4.05
2018-10-16T05:05:16.901Z,4.08
2018-10-16T05:06:17.244Z,4.09
2018-10-16T05:07:16.528Z,4.30
2018-10-16T05:08:16.836Z,4.30
2018-10-16T05:09:17.156Z,4.31
2018-10-16T05:10:16.491Z,4.38
2018-10-16T05:11:16.505Z,4.37
2018-10-16T05:12:16.826Z,4.36
2018-10-16T05:13:17.225Z,4.36
2018-10-16T05:14:16.654Z,4.36
2018-10-16T05:15:16.979Z,4.34
2018-10-16T05:16:16.293Z,4.28
2018-10-16T05:17:16.658Z,4.27
2018-10-16T05:18:16.967Z,4.27
2018-10-16T05:19:16.378Z,4.31
2018-10-16T05:20:16.966Z,4.33
2018-10-16T05:21:17.032Z,4.37
2018-10-16T05:22:16.322Z,4.36
2018-10-16T05:23:16.642Z,4.38
2018-10-16T05:24:16.958Z,4.41
2018-10-16T05:25:16.262Z,4.44
2018-10-16T05:26:16.557Z,4.47
2018-10-16T05:27:16.882Z,4.41
2018-10-16T05:28:17.260Z,4.37
2018-10-16T05:29:16.589Z,4.33
2018-10-16T05:30:16.922Z,4.31
2018-10-16T05:31:17.097Z,4.33
2018-10-16T05:32:16.650Z,4.30
2018-10-16T05:33:16.936Z,4.31
2018-10-16T05:34:16.242Z,4.31
2018-10-16T05:35:16.561Z,4.30
2018-10-16T05:36:16.938Z,4.28
2018-10-16T05:37:16.235Z,4.33
2018-10-16T05:38:16.527Z,4.31
2018-10-16T05:39:16.933Z,4.31
2018-10-16T05:40:16.404Z,4.44
2018-10-16T05:41:16.417Z,4.46
2018-10-16T05:42:16.711Z,4.48
2018-10-16T05:43:17.019Z,4.50
2018-10-16T05:44:16.325Z,4.53
2018-10-16T05:45:16.642Z,4.50
2018-10-16T05:46:16.933Z,4.41
2018-10-16T05:47:16.230Z,4.38
2018-10-16T05:48:16.545Z,4.28
2018-10-16T05:49:16.837Z,4.27
2018-10-16T05:50:17.139Z,4.20
2018-10-16T05:51:17.186Z,4.14
2018-10-16T05:52:16.493Z,4.14
2018-10-16T05:53:16.885Z,4.20
2018-10-16T05:54:16.263Z,4.20
2018-10-16T05:55:16.758Z,4.14
2018-10-16T05:56:17.053Z,4.19
2018-10-16T05:57:16.328Z,4.21
2018-10-16T05:58:16.668Z,4.51
2018-10-16T05:59:16.966Z,4.53
2018-10-16T06:00:16.295Z,4.63
2018-10-16T06:01:16.348Z,4.65
2018-10-16T06:02:16.683Z,4.54
2018-10-16T06:03:16.990Z,4.40
2018-10-16T06:04:16.303Z,4.33
2018-10-16T06:05:16.599Z,4.26
2018-10-16T06:06:16.879Z,4.27
2018-10-16T06:07:17.163Z,4.21
2018-10-16T06:08:16.501Z,4.17
2018-10-16T06:09:16.791Z,4.13
2018-10-16T06:10:17.110Z,4.08
2018-10-16T06:11:17.143Z,4.09
2018-10-16T06:12:16.590Z,4.14
2018-10-16T06:13:16.960Z,4.16
2018-10-16T06:14:16.282Z,4.14
2018-10-16T06:15:16.589Z,4.16
2018-10-16T06:16:16.890Z,4.20
2018-10-16T06:17:17.217Z,4.24
2018-10-16T06:18:16.550Z,4.30
2018-10-16T06:19:16.853Z,4.38
2018-10-16T06:20:17.159Z,4.40
2018-10-16T06:21:17.218Z,4.44
2018-10-16T06:22:16.512Z,4.48
2018-10-16T06:23:16.826Z,4.54
2018-10-16T06:24:17.247Z,4.60
2018-10-16T06:25:16.642Z,4.55
2018-10-16T06:26:16.961Z,4.53
2018-10-16T06:27:16.284Z,4.57
2018-10-16T06:28:16.602Z,4.58
2018-10-16T06:29:16.924Z,4.67
2018-10-16T06:30:16.294Z,4.72
2018-10-16T06:31:16.293Z,4.75
2018-10-16T06:32:16.628Z,4.75
2018-10-16T06:33:16.947Z,4.76
2018-10-16T06:34:16.395Z,4.82
2018-10-16T06:35:16.684Z,4.81
2018-10-16T06:36:16.975Z,4.82
2018-10-16T06:37:16.295Z,4.81
2018-10-16T06:38:16.613Z,4.85
2018-10-16T06:39:16.944Z,4.88
2018-10-16T06:40:16.249Z,4.86
2018-10-16T06:41:16.348Z,4.95
2018-10-16T06:42:16.979Z,4.99
2018-10-16T06:43:16.424Z,5.02
2018-10-16T06:44:16.726Z,5.07
2018-10-16T06:45:17.047Z,5.14
2018-10-16T06:46:16.385Z,5.12
2018-10-16T06:47:16.786Z,5.17
2018-10-16T06:48:17.488Z,5.27
2018-10-16T06:49:17.107Z,5.26
2018-10-16T06:50:16.400Z,5.26
2018-10-16T06:51:16.420Z,5.28
2018-10-16T06:52:16.766Z,5.31
2018-10-16T06:53:17.215Z,5.38
2018-10-16T06:54:16.626Z,5.40
2018-10-16T06:55:16.993Z,5.45
2018-10-16T06:56:16.460Z,5.52
2018-10-16T06:57:16.746Z,5.54
2018-10-16T06:58:17.050Z,5.57
2018-10-16T06:59:16.341Z,5.64
2018-10-16T07:00:16.737Z,5.62
2018-10-16T07:01:16.722Z,5.68
2018-10-16T07:02:17.055Z,5.67
2018-10-16T07:03:16.370Z,5.72
2018-10-16T07:04:16.668Z,5.82
2018-10-16T07:05:16.971Z,5.84
2018-10-16T07:06:16.268Z,5.91
2018-10-16T07:07:16.755Z,5.92
2018-10-16T07:08:16.630Z,5.95
2018-10-16T07:09:16.896Z,6.02
2018-10-16T07:10:17.170Z,6.09
2018-10-16T07:11:16.214Z,6.10
2018-10-16T07:12:16.528Z,6.19
2018-10-16T07:13:16.856Z,6.20
2018-10-16T07:14:17.178Z,6.27
2018-10-16T07:15:16.506Z,6.38
2018-10-16T07:16:16.774Z,6.59
2018-10-16T07:17:17.114Z,6.69
2018-10-16T07:18:16.375Z,6.74
2018-10-16T07:19:16.665Z,6.74
2018-10-16T07:20:16.971Z,6.69
2018-10-16T07:21:17.093Z,6.69
2018-10-16T07:22:16.742Z,6.81
2018-10-16T07:23:17.095Z,6.81
2018-10-16T07:24:16.513Z,6.79
2018-10-16T07:25:16.807Z,6.92
2018-10-16T07:26:17.164Z,7.38
2018-10-16T07:27:16.475Z,7.43
2018-10-16T07:28:16.764Z,7.33
2018-10-16T07:29:17.097Z,7.27
2018-10-16T07:30:16.455Z,7.33
2018-10-16T07:31:16.460Z,7.45
2018-10-16T07:32:16.767Z,7.48
2018-10-16T07:33:17.083Z,7.69
2018-10-16T07:34:16.384Z,7.75
2018-10-16T07:35:16.663Z,7.81
2018-10-16T07:36:16.983Z,7.82
2018-10-16T07:37:16.306Z,7.82
2018-10-16T07:38:16.762Z,7.88
2018-10-16T07:39:17.434Z,8.05
2018-10-16T07:40:16.740Z,8.09
2018-10-16T07:41:16.765Z,8.02
2018-10-16T07:42:17.096Z,8.00
2018-10-16T07:43:16.367Z,8.10
2018-10-16T07:44:16.665Z,8.21
2018-10-16T07:45:17.192Z,8.20
2018-10-16T07:46:16.526Z,8.13
2018-10-16T07:47:16.825Z,8.10
2018-10-16T07:48:17.154Z,8.26
2018-10-16T07:49:16.528Z,8.30
2018-10-16T07:50:16.840Z,8.34
2018-10-16T07:51:16.881Z,8.34
2018-10-16T07:52:17.174Z,8.45
2018-10-16T07:53:16.482Z,8.50
2018-10-16T07:54:16.798Z,8.58
2018-10-16T07:55:17.280Z,8.64
2018-10-16T07:56:16.594Z,8.82
2018-10-16T07:57:17.041Z,8.75
2018-10-16T07:58:16.621Z,8.78
2018-10-16T07:59:16.965Z,8.72
2018-10-16T08:00:16.265Z,8.88
2018-10-16T08:01:16.302Z,8.99
2018-10-16T08:02:16.586Z,9.05
2018-10-16T08:03:16.902Z,9.06
2018-10-16T08:04:16.247Z,9.19
2018-10-16T08:05:16.525Z,9.26
2018-10-16T08:06:16.829Z,9.31
2018-10-16T08:07:17.163Z,9.33
2018-10-16T08:08:16.478Z,9.33
2018-10-16T08:09:16.778Z,9.51
2018-10-16T08:10:17.130Z,9.62
2018-10-16T08:11:17.305Z,9.85
2018-10-16T08:12:16.721Z,9.81
2018-10-16T08:13:17.064Z,9.68
2018-10-16T08:14:16.356Z,9.78
2018-10-16T08:15:16.671Z,9.85
2018-10-16T08:16:17.423Z,9.86
2018-10-16T08:17:16.829Z,9.93
2018-10-16T08:18:16.475Z,9.96
2018-10-16T08:19:16.763Z,9.96
2018-10-16T08:20:17.409Z,10.01
2018-10-16T08:21:17.149Z,9.99
2018-10-16T08:22:16.425Z,10.14
2018-10-16T08:23:16.701Z,10.20
2018-10-16T08:24:17.019Z,10.27
2018-10-16T08:25:16.332Z,10.30
2018-10-16T08:26:16.625Z,10.24
2018-10-16T08:27:16.981Z,10.27
2018-10-16T08:28:16.339Z,10.26
2018-10-16T08:29:16.641Z,10.29
2018-10-16T08:30:16.999Z,10.40
2018-10-16T08:31:17.019Z,10.47
2018-10-16T08:32:16.333Z,10.52
2018-10-16T08:33:16.654Z,10.50
2018-10-16T08:34:17.127Z,10.48
2018-10-16T08:35:16.683Z,10.64
2018-10-16T08:36:17.181Z,10.67
2018-10-16T08:37:16.863Z,10.89
2018-10-16T08:38:16.360Z,10.94
2018-10-16T08:39:16.640Z,11.00
2018-10-16T08:40:16.941Z,11.16
2018-10-16T08:41:16.996Z,11.36
2018-10-16T08:42:16.286Z,11.20
2018-10-16T08:43:16.607Z,11.02
2018-10-16T08:44:16.921Z,11.00
2018-10-16T08:45:16.243Z,11.23
2018-10-16T08:46:16.547Z,11.33
2018-10-16T08:47:16.883Z,11.22
2018-10-16T08:48:16.280Z,11.37
2018-10-16T08:49:16.609Z,11.37
2018-10-16T08:50:16.931Z,11.37
2018-10-16T08:51:16.990Z,11.46
2018-10-16T08:52:16.300Z,11.51
2018-10-16T08:53:16.637Z,11.53
2018-10-16T08:54:16.973Z,11.61
2018-10-16T08:55:16.291Z,11.61
2018-10-16T08:56:16.597Z,11.67
2018-10-16T08:57:16.899Z,11.80
2018-10-16T08:58:17.221Z,11.77
2018-10-16T08:59:16.539Z,11.82
2018-10-16T09:00:16.861Z,11.84
2018-10-16T09:01:16.907Z,11.91
2018-10-16T09:02:16.219Z,11.88
2018-10-16T09:03:16.547Z,12.01
2018-10-16T09:04:16.874Z,11.99
2018-10-16T09:05:17.225Z,12.02
2018-10-16T09:06:16.524Z,12.11
2018-10-16T09:07:16.836Z,12.08
2018-10-16T09:08:17.155Z,12.19
2018-10-16T09:09:16.460Z,12.18
2018-10-16T09:10:16.752Z,12.03
2018-10-16T09:11:16.825Z,12.30
2018-10-16T09:12:17.147Z,12.33
2018-10-16T09:13:16.467Z,12.46
2018-10-16T09:14:16.952Z,12.43
2018-10-16T09:15:16.417Z,12.44
2018-10-16T09:16:16.751Z,12.56
2018-10-16T09:17:17.058Z,12.60
2018-10-16T09:18:16.364Z,12.63
2018-10-16T09:19:16.676Z,12.54
2018-10-16T09:20:17.048Z,12.53
2018-10-16T09:21:17.041Z,12.63
2018-10-16T09:22:16.368Z,12.84
2018-10-16T09:23:16.717Z,12.94
2018-10-16T09:24:17.020Z,12.94
2018-10-16T09:25:16.390Z,12.88
2018-10-16T09:26:16.926Z,13.21
2018-10-16T09:27:16.254Z,13.09
2018-10-16T09:28:16.579Z,12.87
2018-10-16T09:29:16.886Z,12.87
2018-10-16T09:30:17.232Z,13.04
2018-10-16T09:31:16.301Z,13.01
2018-10-16T09:32:16.625Z,13.12
2018-10-16T09:33:17.022Z,13.08
2018-10-16T09:34:16.357Z,13.09
2018-10-16T09:35:16.678Z,13.18
2018-10-16T09:36:16.963Z,13.43
2018-10-16T09:37:16.269Z,13.64
2018-10-16T09:38:16.599Z,13.46
2018-10-16T09:39:16.908Z,13.40
2018-10-16T09:40:16.203Z,13.63
2018-10-16T09:41:16.268Z,13.81
2018-10-16T09:42:16.583Z,13.92
2018-10-16T09:43:16.892Z,13.97
2018-10-16T09:44:17.244Z,14.08
2018-10-16T09:45:16.569Z,14.09
2018-10-16T09:46:16.880Z,14.05
2018-10-16T09:47:17.165Z,14.16
2018-10-16T09:48:16.469Z,14.26
2018-10-16T09:49:16.773Z,14.19
2018-10-16T09:50:17.138Z,14.19
2018-10-16T09:51:17.142Z,14.28
2018-10-16T09:52:16.439Z,14.26
2018-10-16T09:53:16.791Z,14.26
2018-10-16T09:54:17.452Z,14.13
2018-10-16T09:55:16.778Z,14.15
2018-10-16T09:56:17.061Z,14.44
2018-10-16T09:57:16.333Z,14.41
2018-10-16T09:58:16.670Z,14.57
2018-10-16T09:59:16.940Z,14.68
2018-10-16T10:00:16.254Z,14.77
2018-10-16T10:01:16.336Z,14.88
2018-10-16T10:02:16.671Z,14.95
2018-10-16T10:03:16.949Z,14.87
2018-10-16T10:04:16.271Z,14.83
2018-10-16T10:05:16.568Z,14.77
2018-10-16T10:06:16.856Z,14.98
2018-10-16T10:07:17.174Z,15.04
2018-10-16T10:08:16.484Z,14.88
2018-10-16T10:09:16.792Z,14.97
2018-10-16T10:10:17.126Z,14.78
2018-10-16T10:11:17.126Z,14.88
2018-10-16T10:12:16.464Z,14.99
2018-10-16T10:13:16.743Z,15.15
2018-10-16T10:14:17.039Z,15.26
2018-10-16T10:15:16.396Z,15.32
2018-10-16T10:16:16.706Z,15.56
2018-10-16T10:17:17.031Z,15.67
2018-10-16T10:18:16.325Z,15.71
2018-10-16T10:19:16.645Z,15.64
2018-10-16T10:20:16.954Z,15.67
2018-10-16T10:21:17.045Z,15.53
2018-10-16T10:22:16.374Z,15.59
2018-10-16T10:23:16.762Z,15.49
2018-10-16T10:24:16.218Z,15.49
2018-10-16T10:25:16.527Z,15.63
2018-10-16T10:26:16.978Z,15.64
2018-10-16T10:27:16.294Z,15.71
2018-10-16T10:28:16.595Z,15.71
2018-10-16T10:29:16.899Z,15.82
2018-10-16T10:30:17.221Z,15.85
2018-10-16T10:31:16.256Z,15.94
2018-10-16T10:32:16.566Z,16.24
2018-10-16T10:33:16.905Z,16.47
2018-10-16T10:34:17.240Z,16.52
2018-10-16T10:35:16.579Z,16.52
2018-10-16T10:36:16.981Z,16.05
2018-10-16T10:37:16.328Z,16.22
2018-10-16T10:38:16.620Z,16.15
2018-10-16T10:39:16.946Z,16.25
2018-10-16T10:40:16.248Z,16.60
2018-10-16T10:41:16.306Z,16.62
2018-10-16T10:42:16.687Z,16.47
2018-10-16T10:43:17.654Z,16.40
2018-10-16T10:44:16.970Z,16.33
2018-10-16T10:45:16.302Z,16.35
2018-10-16T10:46:16.614Z,16.70
2018-10-16T10:47:16.920Z,16.87
2018-10-16T10:48:16.241Z,16.91
2018-10-16T10:49:16.554Z,16.94
2018-10-16T10:50:17.031Z,17.22
2018-10-16T10:51:17.393Z,17.65
2018-10-16T10:52:16.324Z,17.33
2018-10-16T10:53:16.637Z,17.33
2018-10-16T10:54:16.924Z,17.08
2018-10-16T10:55:16.235Z,17.13
2018-10-16T10:56:16.523Z,17.13
2018-10-16T10:57:16.921Z,17.22
2018-10-16T10:58:16.461Z,17.10
2018-10-16T10:59:16.769Z,17.07
2018-10-16T11:00:17.148Z,17.19
2018-10-16T11:01:17.133Z,17.19
2018-10-16T11:02:16.476Z,17.66
2018-10-16T11:03:16.883Z,17.60
2018-10-16T11:04:16.402Z,17.52
2018-10-16T11:05:16.727Z,18.21
2018-10-16T11:06:17.057Z,18.28
2018-10-16T11:07:16.363Z,17.96
2018-10-16T11:08:16.689Z,17.86
2018-10-16T11:09:17.091Z,17.83
2018-10-16T11:10:16.481Z,17.94
2018-10-16T11:11:16.529Z,17.87
2018-10-16T11:12:16.877Z,17.83
2018-10-16T11:13:17.166Z,17.77
2018-10-16T11:14:16.484Z,17.96
2018-10-16T11:15:16.922Z,18.01
2018-10-16T11:16:16.477Z,17.94
2018-10-16T11:17:16.805Z,18.10
2018-10-16T11:18:17.126Z,18.00
2018-10-16T11:19:16.477Z,18.28
2018-10-16T11:20:16.828Z,18.10
2018-10-16T11:21:17.184Z,18.24
2018-10-16T11:22:16.693Z,18.33
2018-10-16T11:23:16.992Z,18.36
2018-10-16T11:24:16.322Z,18.00
2018-10-16T11:25:16.598Z,17.81
2018-10-16T11:26:16.888Z,18.49
2018-10-16T11:27:17.199Z,18.56
2018-10-16T11:28:16.532Z,18.49
2018-10-16T11:29:16.810Z,18.55
2018-10-16T11:30:17.232Z,18.32
2018-10-16T11:31:17.171Z,18.17
2018-10-16T11:32:16.481Z,18.19
2018-10-16T11:33:16.899Z,18.18
2018-10-16T11:34:16.405Z,18.29
2018-10-16T11:35:16.732Z,18.54
2018-10-16T11:36:17.069Z,18.39
2018-10-16T11:37:16.368Z,18.59
2018-10-16T11:38:16.652Z,18.46
2018-10-16T11:39:16.967Z,18.15
2018-10-16T11:40:16.294Z,18.12
2018-10-16T11:41:16.337Z,18.10
2018-10-16T11:42:16.641Z,18.07
2018-10-16T11:43:16.972Z,18.05
2018-10-16T11:44:16.278Z,18.04
2018-10-16T11:45:16.642Z,18.49
2018-10-16T11:46:16.975Z,18.44
2018-10-16T11:47:16.293Z,18.76
2018-10-16T11:48:16.631Z,18.62
2018-10-16T11:49:16.926Z,18.73
2018-10-16T11:50:16.301Z,18.86
2018-10-16T11:51:16.298Z,18.84
2018-10-16T11:52:16.687Z,18.66
2018-10-16T11:53:17.193Z,18.51
2018-10-16T11:54:16.484Z,18.21
2018-10-16T11:55:16.825Z,18.25
2018-10-16T11:56:17.309Z,18.49
2018-10-16T11:57:16.895Z,18.54
2018-10-16T11:58:17.203Z,18.54
2018-10-16T11:59:16.685Z,18.44
2018-10-16T12:00:17.204Z,18.70
2018-10-16T12:01:16.229Z,18.97
2018-10-16T12:02:16.670Z,18.91
2018-10-16T12:03:16.269Z,18.88
2018-10-16T12:04:16.586Z,18.80
2018-10-16T12:05:16.953Z,18.65
2018-10-16T12:06:16.298Z,18.87
2018-10-16T12:07:16.945Z,18.95
2018-10-16T12:08:16.635Z,19.03
2018-10-16T12:09:17.143Z,19.17
2018-10-16T12:10:16.466Z,19.31
2018-10-16T12:11:16.622Z,19.45
2018-10-16T12:12:17.118Z,19.46
2018-10-16T12:13:16.536Z,19.41
2018-10-16T12:14:17.003Z,19.27
2018-10-16T12:15:16.390Z,19.14
2018-10-16T12:16:16.696Z,18.97
2018-10-16T12:17:17.049Z,18.94
2018-10-16T12:18:16.386Z,18.95
2018-10-16T12:19:16.839Z,19.01
2018-10-16T12:20:16.408Z,19.22
2018-10-16T12:21:16.446Z,19.46
2018-10-16T12:22:16.757Z,19.34
2018-10-16T12:23:17.056Z,19.18
2018-10-16T12:24:16.460Z,19.13
2018-10-16T12:25:17.184Z,19.17
2018-10-16T12:26:16.742Z,19.01
2018-10-16T12:27:17.199Z,19.01
2018-10-16T12:28:16.489Z,19.22
2018-10-16T12:29:16.809Z,19.14
2018-10-16T12:30:17.149Z,19.10
2018-10-16T12:31:17.174Z,19.21
2018-10-16T12:32:16.606Z,19.25
2018-10-16T12:33:17.026Z,19.24
2018-10-16T12:34:16.357Z,19.48
2018-10-16T12:35:16.662Z,19.56
2018-10-16T12:36:16.977Z,19.44
2018-10-16T12:37:16.289Z,19.32
2018-10-16T12:38:16.619Z,19.21
2018-10-16T12:39:17.006Z,19.20
2018-10-16T12:40:16.656Z,19.42
2018-10-16T12:41:16.673Z,19.42
2018-10-16T12:42:17.344Z,19.31
2018-10-16T12:43:16.962Z,19.31
2018-10-16T12:44:16.507Z,19.28
2018-10-16T12:45:16.977Z,19.58
2018-10-16T12:46:16.524Z,19.79
2018-10-16T12:47:17.042Z,19.77
2018-10-16T12:48:16.470Z,19.79
2018-10-16T12:49:16.777Z,19.77
2018-10-16T12:50:17.097Z,19.65
2018-10-16T12:51:17.268Z,19.63
2018-10-16T12:52:16.768Z,19.83
2018-10-16T12:53:17.076Z,19.86
2018-10-16T12:54:16.406Z,19.84
2018-10-16T12:55:16.715Z,19.79
2018-10-16T12:56:17.150Z,19.80
2018-10-16T12:57:16.782Z,19.77
2018-10-16T12:58:17.189Z,19.63
2018-10-16T12:59:16.477Z,19.79
2018-10-16T13:00:16.874Z,19.66
2018-10-16T13:01:16.818Z,19.80
2018-10-16T13:02:17.164Z,19.86
2018-10-16T13:03:16.634Z,20.17
2018-10-16T13:04:17.143Z,20.16
2018-10-16T13:05:16.586Z,20.10
2018-10-16T13:06:17.095Z,20.11
2018-10-16T13:07:16.434Z,20.06
2018-10-16T13:08:16.756Z,20.04